createdAt,value
2023-03-20T00:03:58.965Z,100174.66
2023-03-20T00:09:07.409Z,100166.91
2023-03-20T00:14:15.061Z,100171.41
2023-03-20T00:19:27.989Z,100167.38
2023-03-20T00:24:31.716Z,100167.41
2023-03-20T00:29:34.767Z,100162.13
2023-03-20T00:34:37.792Z,100172.44
2023-03-20T00:39:41.667Z,100166.19
2023-03-20T00:44:55.971Z,100168.81
2023-03-20T00:49:59.384Z,100183.38
2023-03-20T00:55:02.350Z,100171.56
2023-03-20T01:00:25.713Z,100172.78
2023-03-20T01:05:29.126Z,100174.91
2023-03-20T01:10:33.327Z,100169.06
2023-03-20T01:15:37.255Z,100173.91
2023-03-20T01:20:40.819Z,100162.91
2023-03-20T01:25:43.863Z,100164.44
2023-03-20T01:30:48.330Z,100162.50
2023-03-20T01:35:51.757Z,100158.59
2023-03-20T01:41:14.219Z,100153.03
2023-03-20T01:46:30.785Z,100153.44
2023-03-20T01:51:36.035Z,100149.44
2023-03-20T01:56:48.277Z,100148.84
2023-03-20T02:01:51.694Z,100147.34
2023-03-20T02:06:54.758Z,100145.22
2023-03-20T02:11:59.306Z,100148.38
2023-03-20T02:17:09.495Z,100139.34
2023-03-20T02:22:49.004Z,100149.19
2023-03-20T02:28:33.405Z,100141.28
2023-03-20T02:34:04.356Z,100146.81
2023-03-20T02:39:28.322Z,100142.91
2023-03-20T02:44:40.286Z,100135.81
2023-03-20T02:50:00.016Z,100136.75
2023-03-20T02:55:29.204Z,100133.94
2023-03-20T03:00:41.179Z,100126.97
2023-03-20T03:05:54.267Z,100132.16
2023-03-20T03:11:08.779Z,100132.13
2023-03-20T03:16:19.802Z,100130.16
2023-03-20T03:21:23.820Z,100124.59
2023-03-20T03:26:32.477Z,100124.38
2023-03-20T03:31:38.255Z,100117.00
2023-03-20T03:37:02.808Z,100134.22
2023-03-20T03:42:17.334Z,100118.28
2023-03-20T03:47:25.843Z,100128.16
2023-03-20T03:52:31.613Z,100133.44
2023-03-20T03:57:42.367Z,100142.81
2023-03-20T04:02:51.307Z,100146.91
2023-03-20T04:07:58.200Z,100149.91
2023-03-20T04:13:02.446Z,100147.63
2023-03-20T04:18:06.096Z,100160.19
2023-03-20T04:23:09.022Z,100158.88
2023-03-20T04:28:12.008Z,100161.91
2023-03-20T04:33:15.198Z,100169.19
2023-03-20T04:38:19.673Z,100173.13
2023-03-20T04:43:22.771Z,100171.97
2023-03-20T04:48:27.904Z,100176.50
2023-03-20T04:53:30.942Z,100171.13
2023-03-20T04:58:36.069Z,100175.69
2023-03-20T05:03:39.668Z,100181.63
2023-03-20T05:08:42.702Z,100171.13
2023-03-20T05:13:46.107Z,100185.78
2023-03-20T05:18:49.357Z,100189.16
2023-03-20T05:23:52.168Z,100178.16
2023-03-20T05:28:55.228Z,100182.66
2023-03-20T05:33:58.509Z,100193.84
2023-03-20T05:39:01.590Z,100185.94
2023-03-20T05:44:04.905Z,100190.19
2023-03-20T05:49:08.788Z,100192.66
2023-03-20T05:54:11.764Z,100187.09
2023-03-20T05:59:14.944Z,100194.53
2023-03-20T06:04:17.895Z,100202.69
2023-03-20T06:09:20.927Z,100208.19
2023-03-20T06:14:24.101Z,100200.00
2023-03-20T06:19:27.181Z,100211.94
2023-03-20T06:24:30.504Z,100209.44
2023-03-20T06:29:33.495Z,100215.06
2023-03-20T06:34:37.649Z,100210.63
2023-03-20T06:39:41.680Z,100214.75
2023-03-20T06:44:44.555Z,100209.81
2023-03-20T06:49:47.622Z,100217.66
2023-03-20T06:54:52.290Z,100223.88
2023-03-20T06:59:55.341Z,100222.28
2023-03-20T07:04:58.154Z,100224.47
2023-03-20T07:10:01.648Z,100215.22
2023-03-20T07:15:05.886Z,100213.44
2023-03-20T07:20:10.157Z,100205.47
2023-03-20T07:25:13.590Z,100208.44
2023-03-20T07:30:18.300Z,100210.78
2023-03-20T07:35:22.571Z,100205.06
2023-03-20T07:40:26.206Z,100205.69
2023-03-20T07:45:29.432Z,100198.03
2023-03-20T07:50:32.457Z,100197.78
2023-03-20T07:55:35.930Z,100205.94
2023-03-20T08:00:39.159Z,100203.28
2023-03-20T08:05:42.071Z,100208.31
2023-03-20T08:10:45.395Z,100200.91
2023-03-20T08:15:48.349Z,100195.09
2023-03-20T08:20:51.450Z,100207.19
2023-03-20T08:25:54.943Z,100205.50
2023-03-20T08:30:58.033Z,100205.19
2023-03-20T08:36:01.042Z,100206.19
2023-03-20T08:41:04.396Z,100197.22
2023-03-20T08:46:08.356Z,100200.63
2023-03-20T08:51:11.606Z,100207.81
2023-03-20T08:56:14.602Z,100207.63
2023-03-20T09:01:17.612Z,100209.16
2023-03-20T09:06:20.869Z,100213.28
2023-03-20T09:11:24.532Z,100213.72
2023-03-20T09:16:28.277Z,100210.25
2023-03-20T09:21:31.299Z,100200.06
2023-03-20T09:26:34.321Z,100203.56
2023-03-20T09:31:37.541Z,100204.06
2023-03-20T09:36:41.940Z,100192.63
2023-03-20T09:41:57.392Z,100192.47
2023-03-20T09:47:23.974Z,100188.63
2023-03-20T09:52:34.691Z,100186.34
2023-03-20T09:57:45.511Z,100179.84
2023-03-20T10:03:01.931Z,100172.66
2023-03-20T10:08:11.293Z,100177.66
2023-03-20T10:13:52.932Z,100189.63
2023-03-20T10:19:23.547Z,100180.97
2023-03-20T10:24:42.449Z,100184.84
2023-03-20T10:30:45.340Z,100169.97
2023-03-20T10:36:10.513Z,100170.38
2023-03-20T10:41:21.749Z,100170.03
2023-03-20T10:46:31.813Z,100163.44
2023-03-20T10:51:58.495Z,100157.72
2023-03-20T10:57:06.269Z,100154.13
2023-03-20T11:02:15.057Z,100151.34
2023-03-20T11:07:35.086Z,100151.16
2023-03-20T11:12:45.372Z,100139.13
2023-03-20T11:18:08.291Z,100136.19
2023-03-20T11:23:20.639Z,100131.00
2023-03-20T11:28:41.308Z,100127.25
2023-03-20T11:34:07.515Z,100122.06
2023-03-20T11:39:16.861Z,100119.34
2023-03-20T11:44:36.636Z,100112.97
2023-03-20T11:49:57.772Z,100115.56
2023-03-20T11:55:06.860Z,100110.88
2023-03-20T12:00:24.508Z,100111.50
2023-03-20T12:05:36.763Z,100114.75
2023-03-20T12:10:44.507Z,100098.66
2023-03-20T12:15:56.274Z,100088.03
2023-03-20T12:21:15.227Z,100087.06
2023-03-20T12:26:27.143Z,100081.91
2023-03-20T12:31:58.431Z,100082.25
2023-03-20T12:37:02.380Z,100077.16
2023-03-20T12:42:16.854Z,100081.47
2023-03-20T12:48:16.977Z,100075.72
2023-03-20T12:53:38.073Z,100073.31
2023-03-20T12:58:52.887Z,100065.03
2023-03-20T13:04:19.011Z,100065.56
2023-03-20T13:09:37.535Z,100059.63
2023-03-20T13:15:29.040Z,100053.91
2023-03-20T13:21:04.125Z,100046.09
2023-03-20T13:26:34.701Z,100037.06
2023-03-20T13:32:10.379Z,100039.47
2023-03-20T13:37:33.340Z,100028.22
2023-03-20T13:42:59.353Z,100025.84
2023-03-20T13:48:22.007Z,100019.09
2023-03-20T13:53:43.256Z,100013.16
2023-03-20T13:59:03.865Z,100021.91
2023-03-20T14:04:16.226Z,100028.44
2023-03-20T14:09:28.109Z,100032.34
2023-03-20T14:14:50.880Z,100029.47
2023-03-20T14:19:55.184Z,100025.78
2023-03-20T14:25:09.676Z,100022.91
2023-03-20T14:30:30.998Z,100021.50
2023-03-20T14:35:43.821Z,100011.91
2023-03-20T14:40:54.214Z,100007.81
2023-03-20T14:46:42.177Z,100005.28
2023-03-20T14:51:48.292Z,100012.88
2023-03-20T14:56:53.177Z,100007.78
2023-03-20T15:02:03.291Z,100014.09
2023-03-20T15:07:39.770Z,100004.16
2023-03-20T15:12:44.218Z,100002.63
2023-03-20T15:17:50.005Z,99994.25
2023-03-20T15:22:57.726Z,99987.06
2023-03-20T15:28:01.632Z,99986.84
2023-03-20T15:33:05.422Z,99993.31
2023-03-20T15:38:09.985Z,99997.00
2023-03-20T15:43:24.295Z,99999.13
2023-03-20T15:48:27.477Z,100002.81
2023-03-20T15:53:36.165Z,100000.94
2023-03-20T15:58:42.128Z,100006.59
2023-03-20T16:03:45.355Z,100003.59
2023-03-20T16:09:06.087Z,100002.38
2023-03-20T16:14:23.692Z,100010.41
2023-03-20T16:19:29.111Z,100023.69
2023-03-20T16:24:38.473Z,100016.56
2023-03-20T16:29:50.949Z,100020.69
2023-03-20T16:34:59.678Z,100026.06
2023-03-20T16:40:28.567Z,100045.56
2023-03-20T16:45:44.860Z,100044.28
2023-03-20T16:51:00.224Z,100048.69
2023-03-20T16:56:10.472Z,100045.31
2023-03-20T17:01:23.280Z,100043.16
2023-03-20T17:06:43.497Z,100042.38
2023-03-20T17:11:57.962Z,100048.22
2023-03-20T17:17:01.128Z,100047.41
2023-03-20T17:22:16.294Z,100049.78
2023-03-20T17:27:21.226Z,100051.31
2023-03-20T17:32:24.882Z,100047.50
2023-03-20T17:37:30.285Z,100052.34
2023-03-20T17:42:33.647Z,100053.69
2023-03-20T17:47:38.312Z,100060.34
2023-03-20T17:52:41.502Z,100054.25
2023-03-20T17:57:44.700Z,100067.53
2023-03-20T18:02:48.075Z,100073.97
2023-03-20T18:07:51.224Z,100078.00
2023-03-20T18:12:54.226Z,100074.44
2023-03-20T18:17:57.453Z,100074.34
2023-03-20T18:23:00.834Z,100080.25
2023-03-20T18:28:08.071Z,100086.31
2023-03-20T18:33:14.378Z,100069.78
2023-03-20T18:38:17.857Z,100074.84
2023-03-20T18:43:22.900Z,100078.22
2023-03-20T18:48:25.894Z,100072.06
2023-03-20T18:53:30.278Z,100081.06
2023-03-20T18:58:33.330Z,100083.56
2023-03-20T19:03:39.475Z,100086.66
2023-03-20T19:08:44.892Z,100090.34
2023-03-20T19:13:52.358Z,100088.16
2023-03-20T19:19:01.558Z,100083.00
2023-03-20T19:24:06.630Z,100088.50
2023-03-20T19:29:13.891Z,100088.91
2023-03-20T19:34:51.935Z,100089.88
2023-03-20T19:39:40.200Z,100086.03
2023-03-20T19:44:43.016Z,100085.22
2023-03-20T19:49:46.924Z,100084.84
2023-03-20T19:55:01.789Z,100080.25
2023-03-20T20:05:37.605Z,100086.41
2023-03-20T20:10:50.730Z,100081.19
2023-03-20T20:15:55.393Z,100083.38
2023-03-20T20:21:59.926Z,100085.75
2023-03-20T20:26:22.133Z,100085.03
2023-03-20T20:31:31.790Z,100093.81
2023-03-20T20:37:21.028Z,100083.66
2023-03-20T20:41:59.202Z,100093.72
2023-03-20T20:47:02.291Z,100090.88
2023-03-20T20:52:05.634Z,100093.03
2023-03-20T20:57:14.330Z,100097.69
2023-03-20T21:02:17.774Z,100100.25
2023-03-20T21:07:21.387Z,100090.81
2023-03-20T21:12:36.442Z,100085.38
2023-03-20T21:17:59.465Z,100085.34
2023-03-20T21:23:03.362Z,100090.78
2023-03-20T21:28:06.776Z,100087.53
2023-03-20T21:33:09.916Z,100098.34
2023-03-20T21:43:36.429Z,100087.75
2023-03-20T22:00:05.361Z,100104.38
2023-03-20T22:05:28.800Z,100116.13
2023-03-20T22:11:03.456Z,100124.09
2023-03-20T22:32:35.022Z,100104.50
2023-03-20T22:38:00.403Z,100103.81
2023-03-20T22:42:57.452Z,100100.13
2023-03-20T22:47:59.525Z,100092.28
2023-03-20T22:53:02.502Z,100107.34
2023-03-20T22:58:07.875Z,100109.69
2023-03-20T23:03:25.768Z,100097.53
2023-03-20T23:08:42.445Z,100111.03
2023-03-20T23:13:51.643Z,100108.25
2023-03-20T23:18:54.741Z,100113.44
2023-03-20T23:23:57.773Z,100112.28
2023-03-20T23:29:03.445Z,100111.50
2023-03-20T23:34:06.613Z,100113.00
2023-03-20T23:39:13.169Z,100106.72
2023-03-20T23:44:16.149Z,100108.63
2023-03-20T23:49:19.206Z,100106.97
2023-03-20T23:54:22.990Z,100098.84
2023-03-20T23:59:25.852Z,100099.97
